sensor_id;sensor_type;location;lat;lon;timestamp;pressure;altitude;pressure_sealevel;temperature;humidity
40117;BME280;25829;50.228;18.936;2022-12-18T00:01:24;100024.25;;;-3.95;69.82
40117;BME280;25829;50.228;18.936;2022-12-18T00:04:25;100027.66;;;-3.94;69.50
40117;BME280;25829;50.228;18.936;2022-12-18T00:07:26;100029.72;;;-4.01;69.09
40117;BME280;25829;50.228;18.936;2022-12-18T00:10:28;100025.38;;;-4.00;69.18
40117;BME280;25829;50.228;18.936;2022-12-18T00:13:28;100045.03;;;-3.98;69.37
40117;BME280;25829;50.228;18.936;2022-12-18T00:16:29;100044.41;;;-4.03;69.20
40117;BME280;25829;50.228;18.936;2022-12-18T00:19:33;100042.16;;;-4.09;68.77
40117;BME280;25829;50.228;18.936;2022-12-18T00:22:33;100049.88;;;-4.09;69.21
40117;BME280;25829;50.228;18.936;2022-12-18T00:25:36;100049.81;;;-4.07;69.35
40117;BME280;25829;50.228;18.936;2022-12-18T00:28:37;100054.97;;;-4.07;69.15
40117;BME280;25829;50.228;18.936;2022-12-18T00:31:38;100050.47;;;-4.04;69.40
40117;BME280;25829;50.228;18.936;2022-12-18T00:34:38;100055.63;;;-4.04;68.93
40117;BME280;25829;50.228;18.936;2022-12-18T00:37:39;100055.03;;;-4.09;68.97
40117;BME280;25829;50.228;18.936;2022-12-18T00:40:40;100057.47;;;-4.06;68.93
40117;BME280;25829;50.228;18.936;2022-12-18T00:43:41;100068.47;;;-4.02;69.39
40117;BME280;25829;50.228;18.936;2022-12-18T00:46:43;100077.63;;;-3.97;69.37
40117;BME280;25829;50.228;18.936;2022-12-18T00:49:43;100076.56;;;-3.92;69.42
40117;BME280;25829;50.228;18.936;2022-12-18T00:52:44;100072.84;;;-3.87;69.44
40117;BME280;25829;50.228;18.936;2022-12-18T00:55:45;100083.84;;;-3.83;69.03
40117;BME280;25829;50.228;18.936;2022-12-18T00:58:47;100083.03;;;-3.84;69.46
40117;BME280;25829;50.228;18.936;2022-12-18T01:01:47;100087.03;;;-3.78;69.09
40117;BME280;25829;50.228;18.936;2022-12-18T01:04:49;100094.63;;;-3.75;69.11
40117;BME280;25829;50.228;18.936;2022-12-18T01:07:55;100096.31;;;-3.74;69.03
40117;BME280;25829;50.228;18.936;2022-12-18T01:10:56;100096.16;;;-3.71;69.25
40117;BME280;25829;50.228;18.936;2022-12-18T01:13:57;100098.72;;;-3.71;69.11
40117;BME280;25829;50.228;18.936;2022-12-18T01:17:00;100096.16;;;-3.71;68.85
40117;BME280;25829;50.228;18.936;2022-12-18T01:20:06;100101.31;;;-3.71;69.02
40117;BME280;25829;50.228;18.936;2022-12-18T01:23:07;100098.66;;;-3.70;68.59
40117;BME280;25829;50.228;18.936;2022-12-18T01:26:11;100094.31;;;-3.69;69.00
40117;BME280;25829;50.228;18.936;2022-12-18T01:29:12;100096.84;;;-3.67;69.13
40117;BME280;25829;50.228;18.936;2022-12-18T01:32:13;100103.66;;;-3.66;69.20
40117;BME280;25829;50.228;18.936;2022-12-18T01:35:15;100113.97;;;-3.66;69.02
40117;BME280;25829;50.228;18.936;2022-12-18T01:38:16;100102.00;;;-3.67;68.93
40117;BME280;25829;50.228;18.936;2022-12-18T01:41:19;100097.72;;;-3.68;69.08
40117;BME280;25829;50.228;18.936;2022-12-18T01:44:51;100105.47;;;-3.68;68.93
40117;BME280;25829;50.228;18.936;2022-12-18T01:48:07;100108.97;;;-3.70;69.11
40117;BME280;25829;50.228;18.936;2022-12-18T01:51:11;100104.78;;;-3.72;68.85
40117;BME280;25829;50.228;18.936;2022-12-18T01:54:12;100114.34;;;-3.74;69.17
40117;BME280;25829;50.228;18.936;2022-12-18T01:57:13;100128.91;;;-3.73;69.08
40117;BME280;25829;50.228;18.936;2022-12-18T02:00:18;100130.56;;;-3.72;69.11
40117;BME280;25829;50.228;18.936;2022-12-18T02:03:20;100133.25;;;-3.74;69.19
40117;BME280;25829;50.228;18.936;2022-12-18T02:09:28;100150.53;;;-3.76;69.09
40117;BME280;25829;50.228;18.936;2022-12-18T02:12:49;100147.13;;;-3.76;69.20
40117;BME280;25829;50.228;18.936;2022-12-18T02:19:00;100144.78;;;-3.81;69.34
40117;BME280;25829;50.228;18.936;2022-12-18T02:26:18;100161.13;;;-3.82;69.18
40117;BME280;25829;50.228;18.936;2022-12-18T02:29:25;100163.88;;;-3.85;69.27
40117;BME280;25829;50.228;18.936;2022-12-18T02:32:32;100166.28;;;-3.82;69.02
40117;BME280;25829;50.228;18.936;2022-12-18T02:35:36;100164.63;;;-3.83;69.07
40117;BME280;25829;50.228;18.936;2022-12-18T02:38:39;100163.03;;;-3.85;69.00
40117;BME280;25829;50.228;18.936;2022-12-18T02:41:46;100168.19;;;-3.85;69.38
40117;BME280;25829;50.228;18.936;2022-12-18T02:44:50;100173.50;;;-3.88;69.16
40117;BME280;25829;50.228;18.936;2022-12-18T02:47:55;100180.34;;;-3.87;69.18
40117;BME280;25829;50.228;18.936;2022-12-18T02:54:11;100196.50;;;-3.84;69.21
40117;BME280;25829;50.228;18.936;2022-12-18T03:03:44;100211.03;;;-3.83;69.07
40117;BME280;25829;50.228;18.936;2022-12-18T03:06:50;100211.13;;;-3.84;69.22
40117;BME280;25829;50.228;18.936;2022-12-18T03:09:53;100215.47;;;-3.85;69.32
40117;BME280;25829;50.228;18.936;2022-12-18T03:13:07;100217.03;;;-3.82;68.95
40117;BME280;25829;50.228;18.936;2022-12-18T03:16:12;100219.00;;;-3.87;69.04
40117;BME280;25829;50.228;18.936;2022-12-18T03:19:18;100219.97;;;-3.90;69.22
40117;BME280;25829;50.228;18.936;2022-12-18T03:22:24;100221.72;;;-3.90;69.03
40117;BME280;25829;50.228;18.936;2022-12-18T03:25:28;100211.34;;;-3.89;69.42
40117;BME280;25829;50.228;18.936;2022-12-18T03:28:33;100221.59;;;-3.87;69.46
40117;BME280;25829;50.228;18.936;2022-12-18T03:31:40;100222.56;;;-3.90;69.31
40117;BME280;25829;50.228;18.936;2022-12-18T03:34:43;100220.81;;;-3.89;69.43
40117;BME280;25829;50.228;18.936;2022-12-18T03:37:49;100222.50;;;-3.88;69.22
40117;BME280;25829;50.228;18.936;2022-12-18T03:47:27;100233.66;;;-3.88;69.22
40117;BME280;25829;50.228;18.936;2022-12-18T03:53:58;100236.28;;;-3.89;69.21
40117;BME280;25829;50.228;18.936;2022-12-18T03:57:09;100244.16;;;-3.92;69.34
40117;BME280;25829;50.228;18.936;2022-12-18T04:00:17;100251.84;;;-3.91;69.41
40117;BME280;25829;50.228;18.936;2022-12-18T04:03:33;100253.63;;;-3.93;69.11
40117;BME280;25829;50.228;18.936;2022-12-18T04:06:37;100253.63;;;-3.93;69.42
40117;BME280;25829;50.228;18.936;2022-12-18T04:09:39;100258.06;;;-3.95;69.25
40117;BME280;25829;50.228;18.936;2022-12-18T04:12:42;100254.91;;;-4.02;69.33
40117;BME280;25829;50.228;18.936;2022-12-18T04:15:45;100260.06;;;-4.02;69.52
40117;BME280;25829;50.228;18.936;2022-12-18T04:18:49;100256.66;;;-4.02;69.26
40117;BME280;25829;50.228;18.936;2022-12-18T04:21:50;100261.72;;;-4.01;69.26
40117;BME280;25829;50.228;18.936;2022-12-18T04:24:51;100263.53;;;-4.03;69.02
40117;BME280;25829;50.228;18.936;2022-12-18T04:28:01;100270.31;;;-4.00;69.51
40117;BME280;25829;50.228;18.936;2022-12-18T04:31:02;100283.13;;;-3.99;69.01
40117;BME280;25829;50.228;18.936;2022-12-18T04:34:03;100282.34;;;-4.01;68.92
40117;BME280;25829;50.228;18.936;2022-12-18T04:37:10;100286.81;;;-4.04;69.47
40117;BME280;25829;50.228;18.936;2022-12-18T04:40:13;100289.47;;;-4.06;68.97
40117;BME280;25829;50.228;18.936;2022-12-18T04:43:17;100290.38;;;-4.07;69.34
40117;BME280;25829;50.228;18.936;2022-12-18T04:46:18;100300.63;;;-4.05;69.10
40117;BME280;25829;50.228;18.936;2022-12-18T04:49:19;100300.69;;;-4.07;68.97
40117;BME280;25829;50.228;18.936;2022-12-18T04:52:19;100300.63;;;-4.05;69.31
40117;BME280;25829;50.228;18.936;2022-12-18T04:55:21;100310.03;;;-4.04;69.35
40117;BME280;25829;50.228;18.936;2022-12-18T04:58:22;100316.84;;;-4.03;69.27
40117;BME280;25829;50.228;18.936;2022-12-18T05:01:22;100322.84;;;-4.03;69.68
40117;BME280;25829;50.228;18.936;2022-12-18T05:04:23;100326.31;;;-4.04;69.13
40117;BME280;25829;50.228;18.936;2022-12-18T05:07:24;100328.84;;;-4.02;69.41
40117;BME280;25829;50.228;18.936;2022-12-18T05:10:25;100325.50;;;-4.04;69.42
40117;BME280;25829;50.228;18.936;2022-12-18T05:13:26;100328.97;;;-4.05;69.36
40117;BME280;25829;50.228;18.936;2022-12-18T05:16:27;100343.63;;;-4.06;69.08
40117;BME280;25829;50.228;18.936;2022-12-18T05:19:28;100342.75;;;-4.06;69.35
40117;BME280;25829;50.228;18.936;2022-12-18T05:22:28;100341.88;;;-4.05;69.26
40117;BME280;25829;50.228;18.936;2022-12-18T05:25:55;100341.75;;;-4.02;69.43
40117;BME280;25829;50.228;18.936;2022-12-18T05:28:56;100345.19;;;-4.03;69.55
40117;BME280;25829;50.228;18.936;2022-12-18T05:31:56;100342.72;;;-4.05;69.45
40117;BME280;25829;50.228;18.936;2022-12-18T05:34:57;100350.44;;;-4.05;69.63
40117;BME280;25829;50.228;18.936;2022-12-18T05:37:58;100349.53;;;-4.04;69.62
40117;BME280;25829;50.228;18.936;2022-12-18T05:40:59;100349.53;;;-4.04;69.72
40117;BME280;25829;50.228;18.936;2022-12-18T05:44:00;100358.03;;;-4.02;69.46
40117;BME280;25829;50.228;18.936;2022-12-18T05:47:00;100363.25;;;-4.03;69.31
40117;BME280;25829;50.228;18.936;2022-12-18T05:50:01;100362.41;;;-4.04;69.48
40117;BME280;25829;50.228;18.936;2022-12-18T05:53:03;100364.25;;;-4.06;69.41
40117;BME280;25829;50.228;18.936;2022-12-18T05:56:07;100363.47;;;-4.08;69.46
40117;BME280;25829;50.228;18.936;2022-12-18T05:59:08;100359.09;;;-4.06;69.49
40117;BME280;25829;50.228;18.936;2022-12-18T06:02:09;100361.66;;;-4.06;69.47
40117;BME280;25829;50.228;18.936;2022-12-18T06:05:09;100370.28;;;-4.07;69.20
40117;BME280;25829;50.228;18.936;2022-12-18T06:08:12;100368.75;;;-4.11;69.50
40117;BME280;25829;50.228;18.936;2022-12-18T06:11:17;100368.03;;;-4.14;69.58
40117;BME280;25829;50.228;18.936;2022-12-18T06:14:18;100375.78;;;-4.14;69.70
40117;BME280;25829;50.228;18.936;2022-12-18T06:17:19;100381.72;;;-4.12;69.51
40117;BME280;25829;50.228;18.936;2022-12-18T06:20:20;100378.28;;;-4.13;69.54
40117;BME280;25829;50.228;18.936;2022-12-18T06:23:21;100379.13;;;-4.12;69.43
40117;BME280;25829;50.228;18.936;2022-12-18T06:26:22;100380.16;;;-4.17;69.51
40117;BME280;25829;50.228;18.936;2022-12-18T06:29:23;100390.53;;;-4.18;69.58
40117;BME280;25829;50.228;18.936;2022-12-18T06:32:24;100394.78;;;-4.17;69.84
40117;BME280;25829;50.228;18.936;2022-12-18T06:35:24;100395.69;;;-4.18;69.96
40117;BME280;25829;50.228;18.936;2022-12-18T06:38:25;100399.19;;;-4.19;69.49
40117;BME280;25829;50.228;18.936;2022-12-18T06:41:26;100406.63;;;-4.13;69.60
40117;BME280;25829;50.228;18.936;2022-12-18T06:44:27;100416.06;;;-4.12;69.75
40117;BME280;25829;50.228;18.936;2022-12-18T06:47:28;100413.47;;;-4.12;69.46
40117;BME280;25829;50.228;18.936;2022-12-18T06:50:29;100420.44;;;-4.14;69.48
40117;BME280;25829;50.228;18.936;2022-12-18T06:53:30;100423.25;;;-4.20;69.71
40117;BME280;25829;50.228;18.936;2022-12-18T06:56:31;100423.25;;;-4.20;69.62
40117;BME280;25829;50.228;18.936;2022-12-18T06:59:32;100419.09;;;-4.23;69.89
40117;BME280;25829;50.228;18.936;2022-12-18T07:02:34;100427.53;;;-4.19;69.67
40117;BME280;25829;50.228;18.936;2022-12-18T07:05:39;100433.53;;;-4.19;69.76
40117;BME280;25829;50.228;18.936;2022-12-18T07:08:46;100437.78;;;-4.18;69.70
40117;BME280;25829;50.228;18.936;2022-12-18T07:11:48;100442.00;;;-4.17;69.72
40117;BME280;25829;50.228;18.936;2022-12-18T07:14:49;100443.72;;;-4.15;69.52
40117;BME280;25829;50.228;18.936;2022-12-18T07:17:49;100448.91;;;-4.17;69.56
40117;BME280;25829;50.228;18.936;2022-12-18T07:20:50;100462.72;;;-4.18;69.71
40117;BME280;25829;50.228;18.936;2022-12-18T07:23:51;100451.63;;;-4.20;69.55
40117;BME280;25829;50.228;18.936;2022-12-18T07:26:51;100454.91;;;-4.17;69.76
40117;BME280;25829;50.228;18.936;2022-12-18T07:29:52;100470.94;;;-4.10;69.81
40117;BME280;25829;50.228;18.936;2022-12-18T07:32:53;100476.94;;;-4.09;69.61
40117;BME280;25829;50.228;18.936;2022-12-18T07:35:54;100470.91;;;-4.08;69.91
40117;BME280;25829;50.228;18.936;2022-12-18T07:38:55;100487.13;;;-4.06;69.72
40117;BME280;25829;50.228;18.936;2022-12-18T07:41:56;100479.34;;;-4.05;69.58
40117;BME280;25829;50.228;18.936;2022-12-18T07:45:15;100475.03;;;-4.04;69.56
40117;BME280;25829;50.228;18.936;2022-12-18T07:48:18;100468.94;;;-4.03;69.15
40117;BME280;25829;50.228;18.936;2022-12-18T07:51:28;100470.56;;;-4.01;69.15
40117;BME280;25829;50.228;18.936;2022-12-18T07:54:39;100479.13;;;-4.00;69.14
40117;BME280;25829;50.228;18.936;2022-12-18T07:57:40;100475.09;;;-4.06;69.14
40117;BME280;25829;50.228;18.936;2022-12-18T08:00:41;100474.31;;;-4.08;69.23
40117;BME280;25829;50.228;18.936;2022-12-18T08:03:42;100476.06;;;-4.08;69.07
40117;BME280;25829;50.228;18.936;2022-12-18T08:06:43;100476.88;;;-4.08;69.05
40117;BME280;25829;50.228;18.936;2022-12-18T08:09:44;100473.47;;;-4.08;68.98
40117;BME280;25829;50.228;18.936;2022-12-18T08:12:44;100475.16;;;-4.07;68.75
40117;BME280;25829;50.228;18.936;2022-12-18T08:15:45;100486.50;;;-4.11;68.78
40117;BME280;25829;50.228;18.936;2022-12-18T08:18:47;100493.41;;;-4.12;69.23
40117;BME280;25829;50.228;18.936;2022-12-18T08:21:48;100492.59;;;-4.14;68.66
40117;BME280;25829;50.228;18.936;2022-12-18T08:24:48;100490.81;;;-4.12;68.36
40117;BME280;25829;50.228;18.936;2022-12-18T08:27:49;100497.56;;;-4.09;68.69
40117;BME280;25829;50.228;18.936;2022-12-18T08:30:53;100494.16;;;-4.10;68.40
40117;BME280;25829;50.228;18.936;2022-12-18T08:33:54;100496.59;;;-4.07;68.49
40117;BME280;25829;50.228;18.936;2022-12-18T08:36:55;100501.72;;;-4.05;68.51
40117;BME280;25829;50.228;18.936;2022-12-18T08:39:56;100506.66;;;-4.01;68.20
40117;BME280;25829;50.228;18.936;2022-12-18T08:42:57;100510.88;;;-3.98;68.12
40117;BME280;25829;50.228;18.936;2022-12-18T08:46:20;100519.22;;;-3.93;68.23
40117;BME280;25829;50.228;18.936;2022-12-18T08:49:21;100517.22;;;-3.86;67.92
40117;BME280;25829;50.228;18.936;2022-12-18T08:52:22;100524.91;;;-3.85;68.10
40117;BME280;25829;50.228;18.936;2022-12-18T08:55:28;100528.78;;;-3.75;68.27
40117;BME280;25829;50.228;18.936;2022-12-18T08:58:29;100519.94;;;-3.69;68.20
40117;BME280;25829;50.228;18.936;2022-12-18T09:01:30;100542.75;;;-3.60;68.10
40117;BME280;25829;50.228;18.936;2022-12-18T09:04:36;100535.78;;;-3.58;67.43
40117;BME280;25829;50.228;18.936;2022-12-18T09:07:39;100535.59;;;-3.53;67.60
40117;BME280;25829;50.228;18.936;2022-12-18T09:10:48;100547.50;;;-3.51;67.54
40117;BME280;25829;50.228;18.936;2022-12-18T09:13:56;100545.56;;;-3.46;67.34
40117;BME280;25829;50.228;18.936;2022-12-18T09:16:59;100553.06;;;-3.39;67.21
40117;BME280;25829;50.228;18.936;2022-12-18T09:20:02;100547.69;;;-3.35;67.20
40117;BME280;25829;50.228;18.936;2022-12-18T09:23:04;100553.56;;;-3.31;66.82
40117;BME280;25829;50.228;18.936;2022-12-18T09:26:06;100553.16;;;-3.22;66.82
40117;BME280;25829;50.228;18.936;2022-12-18T09:29:07;100538.28;;;-3.17;66.38
40117;BME280;25829;50.228;18.936;2022-12-18T09:32:08;100551.78;;;-2.91;66.89
40117;BME280;25829;50.228;18.936;2022-12-18T09:35:08;100544.19;;;-2.58;65.99
40117;BME280;25829;50.228;18.936;2022-12-18T09:38:17;100549.84;;;-2.50;64.96
40117;BME280;25829;50.228;18.936;2022-12-18T09:41:53;100547.09;;;-2.47;65.29
40117;BME280;25829;50.228;18.936;2022-12-18T09:44:55;100546.94;;;-2.44;64.79
40117;BME280;25829;50.228;18.936;2022-12-18T09:47:56;100552.94;;;-2.43;64.83
40117;BME280;25829;50.228;18.936;2022-12-18T09:51:05;100555.03;;;-2.50;64.67
40117;BME280;25829;50.228;18.936;2022-12-18T09:54:25;100557.88;;;-2.56;65.13
40117;BME280;25829;50.228;18.936;2022-12-18T09:57:29;100552.16;;;-2.63;65.43
40117;BME280;25829;50.228;18.936;2022-12-18T10:00:31;100545.38;;;-2.65;65.01
40117;BME280;25829;50.228;18.936;2022-12-18T10:03:32;100550.69;;;-2.68;65.21
40117;BME280;25829;50.228;18.936;2022-12-18T10:07:08;100550.09;;;-2.73;64.94
40117;BME280;25829;50.228;18.936;2022-12-18T10:13:52;100538.56;;;-3.04;63.08
40117;BME280;25829;50.228;18.936;2022-12-18T10:17:07;100542.59;;;-3.36;63.16
40117;BME280;25829;50.228;18.936;2022-12-18T10:20:25;100542.63;;;-3.57;64.12
40117;BME280;25829;50.228;18.936;2022-12-18T10:24:01;100542.09;;;-3.65;64.46
40117;BME280;25829;50.228;18.936;2022-12-18T10:27:15;100536.56;;;-3.76;64.27
40117;BME280;25829;50.228;18.936;2022-12-18T10:30:18;100523.81;;;-3.79;64.88
40117;BME280;25829;50.228;18.936;2022-12-18T10:33:22;100531.88;;;-3.66;65.54
40117;BME280;25829;50.228;18.936;2022-12-18T10:36:24;100519.41;;;-3.57;65.16
40117;BME280;25829;50.228;18.936;2022-12-18T10:39:25;100519.41;;;-3.57;64.93
40117;BME280;25829;50.228;18.936;2022-12-18T10:42:26;100521.06;;;-3.56;65.04
40117;BME280;25829;50.228;18.936;2022-12-18T10:45:27;100508.69;;;-3.68;64.38
40117;BME280;25829;50.228;18.936;2022-12-18T10:48:29;100513.56;;;-3.81;64.97
40117;BME280;25829;50.228;18.936;2022-12-18T10:51:33;100507.75;;;-3.86;65.76
40117;BME280;25829;50.228;18.936;2022-12-18T10:54:35;100511.69;;;-3.77;66.06
40117;BME280;25829;50.228;18.936;2022-12-18T10:57:39;100513.09;;;-3.70;65.38
40117;BME280;25829;50.228;18.936;2022-12-18T11:00:41;100514.91;;;-3.72;65.66
40117;BME280;25829;50.228;18.936;2022-12-18T11:03:46;100506.50;;;-3.57;65.82
40117;BME280;25829;50.228;18.936;2022-12-18T11:06:53;100504.91;;;-3.59;64.29
40117;BME280;25829;50.228;18.936;2022-12-18T11:10:02;100500.19;;;-3.70;64.96
40117;BME280;25829;50.228;18.936;2022-12-18T11:16:20;100488.28;;;-3.93;65.07
40117;BME280;25829;50.228;18.936;2022-12-18T11:19:55;100485.72;;;-3.93;64.95
40117;BME280;25829;50.228;18.936;2022-12-18T11:22:59;100488.75;;;-3.83;65.82
40117;BME280;25829;50.228;18.936;2022-12-18T11:26:04;100477.94;;;-3.73;65.31
40117;BME280;25829;50.228;18.936;2022-12-18T11:29:15;100493.91;;;-3.64;64.86
40117;BME280;25829;50.228;18.936;2022-12-18T11:32:39;100502.31;;;-3.59;65.27
40117;BME280;25829;50.228;18.936;2022-12-18T11:35:52;100496.41;;;-3.42;64.97
40117;BME280;25829;50.228;18.936;2022-12-18T11:38:56;100495.16;;;-3.34;65.20
40117;BME280;25829;50.228;18.936;2022-12-18T11:42:20;100498.81;;;-3.19;64.87
40117;BME280;25829;50.228;18.936;2022-12-18T11:45:27;100506.88;;;-3.27;63.43
40117;BME280;25829;50.228;18.936;2022-12-18T11:48:33;100514.00;;;-3.32;64.52
40117;BME280;25829;50.228;18.936;2022-12-18T11:51:40;100506.00;;;-3.26;64.63
40117;BME280;25829;50.228;18.936;2022-12-18T11:54:42;100512.69;;;-3.22;64.78
40117;BME280;25829;50.228;18.936;2022-12-18T12:07:53;100512.16;;;-2.92;64.51
40117;BME280;25829;50.228;18.936;2022-12-18T12:18:12;100521.53;;;-2.89;64.27
40117;BME280;25829;50.228;18.936;2022-12-18T12:24:47;100519.34;;;-2.99;63.76
40117;BME280;25829;50.228;18.936;2022-12-18T12:28:10;100519.31;;;-2.97;64.39
40117;BME280;25829;50.228;18.936;2022-12-18T12:41:08;100527.03;;;-3.16;62.15
40117;BME280;25829;50.228;18.936;2022-12-18T12:44:51;100529.69;;;-3.36;62.66
40117;BME280;25829;50.228;18.936;2022-12-18T12:47:55;100531.00;;;-3.47;63.54
40117;BME280;25829;50.228;18.936;2022-12-18T12:51:01;100540.53;;;-3.49;64.05
40117;BME280;25829;50.228;18.936;2022-12-18T12:54:06;100541.38;;;-3.48;64.67
40117;BME280;25829;50.228;18.936;2022-12-18T13:00:20;100546.66;;;-3.51;64.10
40117;BME280;25829;50.228;18.936;2022-12-18T13:03:46;100539.13;;;-3.56;64.09
40117;BME280;25829;50.228;18.936;2022-12-18T13:06:57;100537.47;;;-3.57;63.84
40117;BME280;25829;50.228;18.936;2022-12-18T13:13:22;100546.38;;;-3.64;64.13
40117;BME280;25829;50.228;18.936;2022-12-18T13:16:25;100546.50;;;-3.67;64.26
40117;BME280;25829;50.228;18.936;2022-12-18T13:19:26;100548.31;;;-3.69;64.48
40117;BME280;25829;50.228;18.936;2022-12-18T13:25:37;100563.16;;;-3.74;65.43
40117;BME280;25829;50.228;18.936;2022-12-18T13:41:31;100565.47;;;-3.88;65.20
40117;BME280;25829;50.228;18.936;2022-12-18T13:44:35;100569.84;;;-3.90;65.20
40117;BME280;25829;50.228;18.936;2022-12-18T13:47:37;100563.19;;;-3.96;65.21
40117;BME280;25829;50.228;18.936;2022-12-18T13:50:38;100563.38;;;-4.01;65.12
40117;BME280;25829;50.228;18.936;2022-12-18T13:53:46;100569.63;;;-4.06;65.45
40117;BME280;25829;50.228;18.936;2022-12-18T13:56:48;100574.97;;;-4.11;65.53
40117;BME280;25829;50.228;18.936;2022-12-18T13:59:49;100564.75;;;-4.12;65.57
40117;BME280;25829;50.228;18.936;2022-12-18T14:02:51;100565.94;;;-4.21;65.36
40117;BME280;25829;50.228;18.936;2022-12-18T14:06:08;100564.31;;;-4.24;65.83
40117;BME280;25829;50.228;18.936;2022-12-18T14:09:14;100563.06;;;-4.35;65.57
40117;BME280;25829;50.228;18.936;2022-12-18T14:12:34;100564.34;;;-4.46;65.96
40117;BME280;25829;50.228;18.936;2022-12-18T14:15:54;100559.53;;;-4.55;66.22
40117;BME280;25829;50.228;18.936;2022-12-18T14:18:56;100566.50;;;-4.57;66.57
40117;BME280;25829;50.228;18.936;2022-12-18T14:21:58;100566.66;;;-4.61;66.63
40117;BME280;25829;50.228;18.936;2022-12-18T14:25:14;100564.06;;;-4.61;66.91
40117;BME280;25829;50.228;18.936;2022-12-18T14:28:15;100570.03;;;-4.59;67.21
40117;BME280;25829;50.228;18.936;2022-12-18T14:31:22;100566.50;;;-4.57;67.14
40117;BME280;25829;50.228;18.936;2022-12-18T14:34:26;100571.56;;;-4.55;67.27
40117;BME280;25829;50.228;18.936;2022-12-18T14:37:27;100566.50;;;-4.57;67.12
40117;BME280;25829;50.228;18.936;2022-12-18T14:40:28;100571.69;;;-4.58;67.23
40117;BME280;25829;50.228;18.936;2022-12-18T14:43:32;100576.09;;;-4.60;67.13
40117;BME280;25829;50.228;18.936;2022-12-18T14:46:36;100571.75;;;-4.60;67.10
40117;BME280;25829;50.228;18.936;2022-12-18T14:49:41;100582.00;;;-4.58;66.87
40117;BME280;25829;50.228;18.936;2022-12-18T14:52:42;100586.50;;;-4.63;66.65
40117;BME280;25829;50.228;18.936;2022-12-18T14:55:46;100589.25;;;-4.68;66.82
40117;BME280;25829;50.228;18.936;2022-12-18T14:58:54;100587.75;;;-4.74;67.09
40117;BME280;25829;50.228;18.936;2022-12-18T15:05:29;100593.34;;;-4.86;67.09
40117;BME280;25829;50.228;18.936;2022-12-18T15:08:34;100605.56;;;-4.91;66.93
40117;BME280;25829;50.228;18.936;2022-12-18T15:14:40;100600.28;;;-5.11;66.53
40117;BME280;25829;50.228;18.936;2022-12-18T15:17:41;100601.50;;;-5.22;66.46
40117;BME280;25829;50.228;18.936;2022-12-18T15:20:49;100601.09;;;-5.34;66.75
40117;BME280;25829;50.228;18.936;2022-12-18T15:23:51;100609.09;;;-5.42;67.01
40117;BME280;25829;50.228;18.936;2022-12-18T15:26:52;100609.34;;;-5.50;66.73
40117;BME280;25829;50.228;18.936;2022-12-18T15:33:26;100621.06;;;-5.66;66.57
40117;BME280;25829;50.228;18.936;2022-12-18T15:36:30;100623.06;;;-5.76;66.60
40117;BME280;25829;50.228;18.936;2022-12-18T15:39:30;100621.69;;;-5.86;66.84
40117;BME280;25829;50.228;18.936;2022-12-18T15:42:31;100622.91;;;-5.96;66.61
40117;BME280;25829;50.228;18.936;2022-12-18T15:45:51;100624.03;;;-6.05;66.86
40117;BME280;25829;50.228;18.936;2022-12-18T15:48:53;100623.47;;;-6.15;67.22
40117;BME280;25829;50.228;18.936;2022-12-18T15:51:57;100629.69;;;-6.22;66.93
40117;BME280;25829;50.228;18.936;2022-12-18T15:54:58;100628.31;;;-6.32;67.13
40117;BME280;25829;50.228;18.936;2022-12-18T15:58:18;100638.81;;;-6.40;66.90
40117;BME280;25829;50.228;18.936;2022-12-18T16:01:28;100640.69;;;-6.45;67.20
40117;BME280;25829;50.228;18.936;2022-12-18T16:04:29;100642.59;;;-6.51;66.82
40117;BME280;25829;50.228;18.936;2022-12-18T16:07:30;100653.88;;;-6.57;67.12
40117;BME280;25829;50.228;18.936;2022-12-18T16:10:31;100636.06;;;-6.62;66.83
40117;BME280;25829;50.228;18.936;2022-12-18T16:13:31;100643.00;;;-6.65;66.44
40117;BME280;25829;50.228;18.936;2022-12-18T16:16:32;100644.84;;;-6.70;66.36
40117;BME280;25829;50.228;18.936;2022-12-18T16:19:33;100657.03;;;-6.77;66.41
40117;BME280;25829;50.228;18.936;2022-12-18T16:22:33;100657.31;;;-6.88;66.42
40117;BME280;25829;50.228;18.936;2022-12-18T16:25:34;100650.75;;;-6.96;66.61
40117;BME280;25829;50.228;18.936;2022-12-18T16:28:35;100646.69;;;-7.05;66.56
40117;BME280;25829;50.228;18.936;2022-12-18T16:31:36;100657.16;;;-7.13;66.87
40117;BME280;25829;50.228;18.936;2022-12-18T16:34:38;100652.94;;;-7.15;66.43
40117;BME280;25829;50.228;18.936;2022-12-18T16:37:40;100646.28;;;-7.21;66.47
40117;BME280;25829;50.228;18.936;2022-12-18T16:40:41;100648.94;;;-7.25;66.68
40117;BME280;25829;50.228;18.936;2022-12-18T16:44:03;100649.97;;;-7.31;66.38
40117;BME280;25829;50.228;18.936;2022-12-18T16:47:04;100652.59;;;-7.34;66.17
40117;BME280;25829;50.228;18.936;2022-12-18T16:50:05;100647.56;;;-7.37;66.12
40117;BME280;25829;50.228;18.936;2022-12-18T16:53:06;100642.53;;;-7.42;65.96
40117;BME280;25829;50.228;18.936;2022-12-18T16:56:07;100643.63;;;-7.50;65.49
40117;BME280;25829;50.228;18.936;2022-12-18T16:59:10;100632.75;;;-7.60;65.72
40117;BME280;25829;50.228;18.936;2022-12-18T17:02:16;100626.94;;;-7.67;65.97
40117;BME280;25829;50.228;18.936;2022-12-18T17:05:17;100622.00;;;-7.73;66.00
40117;BME280;25829;50.228;18.936;2022-12-18T17:08:18;100626.38;;;-7.78;66.25
40117;BME280;25829;50.228;18.936;2022-12-18T17:11:19;100624.72;;;-7.81;66.43
40117;BME280;25829;50.228;18.936;2022-12-18T17:14:22;100609.41;;;-7.84;66.51
40117;BME280;25829;50.228;18.936;2022-12-18T17:17:23;100600.94;;;-7.86;66.72
40117;BME280;25829;50.228;18.936;2022-12-18T17:20:24;100600.94;;;-7.86;66.52
40117;BME280;25829;50.228;18.936;2022-12-18T17:23:25;100600.97;;;-7.87;66.43
40117;BME280;25829;50.228;18.936;2022-12-18T17:26:26;100601.03;;;-7.90;66.46
40117;BME280;25829;50.228;18.936;2022-12-18T17:29:27;100602.75;;;-7.91;66.57
40117;BME280;25829;50.228;18.936;2022-12-18T17:32:28;100597.72;;;-7.94;66.34